Time;durP1;ratioP1;P1;durP2;ratioP2;P2;SDS_P1;SDS_P2;PMS_P1;PMS_P2;Temp;Humidity;BMP_temperature;BMP_pressure;BME280_temperature;BME280_humidity;BME280_pressure;Samples;Min_cycle;Max_cycle;Signal;HPM_P1;HPM_P2
2023/03/12 00:01:28;;;;;;;11.70;4.88;;;;;;;;;;4972319;28;20038;-66
2023/03/12 00:03:54;;;;;;;11.20;4.05;;;;;;;;;;4989298;28;20069;-65
2023/03/12 00:06:20;;;;;;;10.85;3.90;;;;;;;;;;4972045;28;20031;-67
2023/03/12 00:08:45;;;;;;;8.60;3.20;;;;;;;;;;4973138;28;20545;-67
2023/03/12 00:11:13;;;;;;;7.43;2.35;;;;;;;;;;4969730;28;20038;-67
2023/03/12 00:13:38;;;;;;;10.98;2.90;;;;;;;;;;4973592;28;20019;-69
2023/03/12 00:16:08;;;;;;;6.93;2.20;;;;;;;;;;4986165;28;20516;-69
2023/03/12 00:18:33;;;;;;;7.63;1.80;;;;;;;;;;4971783;28;20552;-67
2023/03/12 00:20:58;;;;;;;6.43;2.10;;;;;;;;;;4972147;28;20447;-67
2023/03/12 00:23:23;;;;;;;6.13;2.20;;;;;;;;;;4969193;28;20026;-67
2023/03/12 00:25:48;;;;;;;5.73;1.90;;;;;;;;;;4972471;28;20109;-67
2023/03/12 00:28:14;;;;;;;8.55;1.67;;;;;;;;;;4970684;28;20474;-66
2023/03/12 00:30:39;;;;;;;6.07;1.90;;;;;;;;;;4974513;28;20014;-69
2023/03/12 00:33:04;;;;;;;5.97;1.80;;;;;;;;;;4974216;28;20023;-67
2023/03/12 00:35:31;;;;;;;6.10;1.93;;;;;;;;;;4971622;28;20095;-67
2023/03/12 00:37:56;;;;;;;5.68;1.92;;;;;;;;;;4971566;28;20023;-66
2023/03/12 00:40:21;;;;;;;7.53;2.13;;;;;;;;;;4970831;28;20026;-67
2023/03/12 00:42:47;;;;;;;6.32;1.83;;;;;;;;;;4969395;28;20849;-68
2023/03/12 00:45:12;;;;;;;6.47;1.90;;;;;;;;;;4970647;28;20463;-69
2023/03/12 00:47:37;;;;;;;4.70;1.67;;;;;;;;;;4973052;28;20066;-66
2023/03/12 00:50:03;;;;;;;6.03;1.90;;;;;;;;;;4970493;28;20023;-65
2023/03/12 00:52:28;;;;;;;4.97;1.63;;;;;;;;;;4964627;28;20037;-66
2023/03/12 00:54:57;;;;;;;9.90;2.03;;;;;;;;;;4971093;28;20506;-66
2023/03/12 00:57:22;;;;;;;5.82;2.10;;;;;;;;;;4970739;28;20035;-68
2023/03/12 00:59:47;;;;;;;6.57;1.70;;;;;;;;;;4972405;28;20121;-66
2023/03/12 01:02:12;;;;;;;7.07;1.70;;;;;;;;;;4970827;28;20031;-66
2023/03/12 01:04:38;;;;;;;5.63;1.42;;;;;;;;;;4969332;28;20417;-66
2023/03/12 01:07:04;;;;;;;6.28;1.50;;;;;;;;;;4970912;28;20031;-67
2023/03/12 01:09:29;;;;;;;5.37;1.60;;;;;;;;;;4970176;28;20073;-66
2023/03/12 01:11:54;;;;;;;6.13;1.63;;;;;;;;;;4970200;28;20033;-67
2023/03/12 01:14:19;;;;;;;5.87;1.60;;;;;;;;;;4970305;28;20563;-67
2023/03/12 01:16:44;;;;;;;7.13;1.63;;;;;;;;;;4970881;28;20033;-67
2023/03/12 01:19:09;;;;;;;4.57;1.40;;;;;;;;;;4971224;28;20031;-66
2023/03/12 01:21:35;;;;;;;6.72;1.52;;;;;;;;;;4971728;28;20483;-67
2023/03/12 01:24:00;;;;;;;3.87;1.27;;;;;;;;;;4972155;28;20015;-67
2023/03/12 01:26:25;;;;;;;5.40;1.53;;;;;;;;;;4967715;28;20431;-66
2023/03/12 01:28:50;;;;;;;4.03;1.30;;;;;;;;;;4967858;28;20045;-68
2023/03/12 01:31:17;;;;;;;5.67;1.50;;;;;;;;;;4971018;28;20039;-65
2023/03/12 01:33:42;;;;;;;6.32;1.30;;;;;;;;;;4969011;28;20015;-66
2023/03/12 01:36:18;;;;;;;8.07;1.60;;;;;;;;;;4968035;28;20041;-67
2023/03/12 01:38:43;;;;;;;4.90;1.60;;;;;;;;;;4964489;28;20030;-66
2023/03/12 01:41:08;;;;;;;8.40;1.40;;;;;;;;;;4967994;28;20023;-67
2023/03/12 01:43:35;;;;;;;4.68;1.33;;;;;;;;;;4970892;28;20022;-68
2023/03/12 01:46:22;;;;;;;5.88;2.10;;;;;;;;;;4970168;28;20105;-67
2023/03/12 01:48:50;;;;;;;4.13;1.30;;;;;;;;;;4968575;28;20390;-67
2023/03/12 01:51:16;;;;;;;4.40;1.52;;;;;;;;;;4968268;28;20026;-69
2023/03/12 01:53:43;;;;;;;7.78;1.50;;;;;;;;;;4970029;28;20058;-66
2023/03/12 01:56:08;;;;;;;4.38;1.23;;;;;;;;;;4969794;28;20496;-66
2023/03/12 01:58:35;;;;;;;5.15;1.40;;;;;;;;;;4970743;28;20212;-66
2023/03/12 02:01:00;;;;;;;5.25;1.40;;;;;;;;;;4970832;28;20360;-66
2023/03/12 02:03:26;;;;;;;6.53;1.48;;;;;;;;;;4968391;28;20038;-68
2023/03/12 02:05:56;;;;;;;6.38;1.50;;;;;;;;;;4968054;28;20107;-68
2023/03/12 02:08:22;;;;;;;6.03;1.45;;;;;;;;;;4967435;28;20644;-66
2023/03/12 02:10:48;;;;;;;6.82;1.33;;;;;;;;;;4969934;28;20110;-66
2023/03/12 02:13:13;;;;;;;7.70;1.40;;;;;;;;;;4970682;28;20058;-68
2023/03/12 02:15:38;;;;;;;5.00;1.30;;;;;;;;;;4968795;28;20394;-67
2023/03/12 02:18:05;;;;;;;3.92;1.17;;;;;;;;;;4970776;28;20062;-65
2023/03/12 02:20:31;;;;;;;4.68;1.30;;;;;;;;;;4969205;28;20019;-67
2023/03/12 02:23:03;;;;;;;5.40;1.30;;;;;;;;;;4968077;28;20037;-65
2023/03/12 02:25:33;;;;;;;8.27;1.60;;;;;;;;;;4968812;28;20458;-68
2023/03/12 02:28:00;;;;;;;4.30;1.50;;;;;;;;;;4970279;28;20031;-66
2023/03/12 02:30:26;;;;;;;5.78;1.23;;;;;;;;;;4970370;28;20062;-67
2023/03/12 02:32:52;;;;;;;4.72;1.40;;;;;;;;;;4971350;28;20069;-68
2023/03/12 02:35:17;;;;;;;3.75;1.33;;;;;;;;;;4970509;28;20509;-69
2023/03/12 02:37:46;;;;;;;5.30;1.50;;;;;;;;;;4968041;28;20130;-67
2023/03/12 02:40:20;;;;;;;6.00;1.55;;;;;;;;;;4970189;28;20030;-68
2023/03/12 02:42:45;;;;;;;7.13;1.63;;;;;;;;;;4968784;28;20405;-67
2023/03/12 02:45:10;;;;;;;6.93;1.60;;;;;;;;;;4968402;28;20102;-66
2023/03/12 02:47:35;;;;;;;7.43;1.47;;;;;;;;;;4970229;28;20114;-66
2023/03/12 02:50:00;;;;;;;5.93;1.50;;;;;;;;;;4970500;28;20045;-68
2023/03/12 02:52:26;;;;;;;12.73;1.60;;;;;;;;;;4971498;28;20030;-66
2023/03/12 02:54:51;;;;;;;5.97;1.30;;;;;;;;;;4972327;28;20031;-68
2023/03/12 02:57:16;;;;;;;4.07;1.50;;;;;;;;;;4973995;28;20041;-66
2023/03/12 02:59:41;;;;;;;4.68;1.30;;;;;;;;;;4974543;28;20022;-67
2023/03/12 03:02:08;;;;;;;6.40;1.37;;;;;;;;;;4973398;28;20018;-66
2023/03/12 03:04:34;;;;;;;6.22;1.30;;;;;;;;;;4971772;28;20018;-66
2023/03/12 03:07:00;;;;;;;5.38;1.20;;;;;;;;;;4972034;28;20030;-67
2023/03/12 03:09:25;;;;;;;4.38;1.38;;;;;;;;;;4971907;28;20031;-67
2023/03/12 03:11:51;;;;;;;5.15;1.35;;;;;;;;;;4972202;28;20034;-66
2023/03/12 03:14:16;;;;;;;7.17;1.40;;;;;;;;;;4973629;28;20027;-68
2023/03/12 03:16:42;;;;;;;3.70;1.20;;;;;;;;;;4972244;28;20484;-68
2023/03/12 03:19:07;;;;;;;5.22;1.20;;;;;;;;;;4973314;28;20504;-66
2023/03/12 03:21:32;;;;;;;5.25;1.35;;;;;;;;;;4972377;28;20038;-68
2023/03/12 03:23:58;;;;;;;4.88;1.30;;;;;;;;;;4972314;28;20026;-67
2023/03/12 03:26:23;;;;;;;4.50;1.08;;;;;;;;;;4969458;28;20112;-65
2023/03/12 03:28:49;;;;;;;7.35;1.30;;;;;;;;;;4977202;28;20479;-67
2023/03/12 03:31:15;;;;;;;5.50;1.42;;;;;;;;;;4971681;28;20023;-66
2023/03/12 03:33:40;;;;;;;7.13;1.40;;;;;;;;;;4973512;28;20053;-66
2023/03/12 03:36:06;;;;;;;6.37;1.40;;;;;;;;;;4973270;28;20497;-66
2023/03/12 03:38:32;;;;;;;4.53;1.23;;;;;;;;;;4972463;28;20022;-67
2023/03/12 03:40:57;;;;;;;4.18;1.20;;;;;;;;;;4973927;28;20023;-66
2023/03/12 03:43:23;;;;;;;5.35;1.17;;;;;;;;;;4974583;28;20019;-68
2023/03/12 03:45:48;;;;;;;6.07;1.35;;;;;;;;;;4975247;28;20085;-65
2023/03/12 03:48:13;;;;;;;5.40;1.20;;;;;;;;;;4974441;28;20030;-68
2023/03/12 03:50:39;;;;;;;5.82;1.70;;;;;;;;;;4974304;28;20514;-67
2023/03/12 03:53:05;;;;;;;2.88;1.00;;;;;;;;;;4974540;28;20038;-67
2023/03/12 03:55:30;;;;;;;5.40;1.40;;;;;;;;;;4971910;28;20075;-67
2023/03/12 03:57:55;;;;;;;7.77;1.50;;;;;;;;;;4973072;28;20130;-67
2023/03/12 04:00:20;;;;;;;3.53;1.25;;;;;;;;;;4969484;28;20051;-68
2023/03/12 04:02:46;;;;;;;4.60;1.20;;;;;;;;;;4972154;28;20034;-67
2023/03/12 04:05:11;;;;;;;6.07;1.30;;;;;;;;;;4973317;28;20477;-67
2023/03/12 04:07:36;;;;;;;6.43;1.23;;;;;;;;;;4974370;28;20498;-67
2023/03/12 04:10:02;;;;;;;8.48;1.58;;;;;;;;;;4975716;28;20031;-66
2023/03/12 04:12:27;;;;;;;5.75;1.85;;;;;;;;;;4975315;28;20030;-66
2023/03/12 04:14:52;;;;;;;7.57;1.50;;;;;;;;;;4974681;28;20446;-67
2023/03/12 04:17:17;;;;;;;5.33;1.40;;;;;;;;;;4977504;28;20034;-68
2023/03/12 04:19:43;;;;;;;6.20;1.58;;;;;;;;;;4974539;28;20367;-67
2023/03/12 04:22:08;;;;;;;5.90;1.47;;;;;;;;;;4973730;28;20026;-68
2023/03/12 04:24:33;;;;;;;6.13;1.33;;;;;;;;;;4972238;28;20548;-68
2023/03/12 04:26:59;;;;;;;3.67;1.27;;;;;;;;;;4973074;28;21781;-69
2023/03/12 04:29:24;;;;;;;6.63;1.30;;;;;;;;;;4971883;28;20022;-69
2023/03/12 04:31:49;;;;;;;3.63;1.10;;;;;;;;;;4971896;28;20030;-67
2023/03/12 04:34:14;;;;;;;5.40;1.00;;;;;;;;;;4970339;28;20019;-68
2023/03/12 04:36:40;;;;;;;4.97;1.30;;;;;;;;;;4972403;28;20077;-68
2023/03/12 04:39:08;;;;;;;4.78;1.60;;;;;;;;;;4972276;28;20102;-67
2023/03/12 04:41:33;;;;;;;4.75;1.20;;;;;;;;;;4971728;28;20426;-67
2023/03/12 04:43:59;;;;;;;5.18;1.25;;;;;;;;;;4971240;28;20027;-67
2023/03/12 04:46:24;;;;;;;5.03;1.10;;;;;;;;;;4971426;28;20035;-69
2023/03/12 04:48:49;;;;;;;5.40;1.30;;;;;;;;;;4971347;28;20475;-68
2023/03/12 04:51:14;;;;;;;4.43;1.07;;;;;;;;;;4972802;28;20057;-69
2023/03/12 04:53:39;;;;;;;5.23;1.23;;;;;;;;;;4972015;28;20022;-68
2023/03/12 04:56:04;;;;;;;6.23;1.20;;;;;;;;;;4971894;28;20567;-69
2023/03/12 04:58:30;;;;;;;4.50;1.10;;;;;;;;;;4969926;28;20078;-66
2023/03/12 05:00:55;;;;;;;5.67;1.10;;;;;;;;;;4970849;28;20621;-67
2023/03/12 05:03:20;;;;;;;5.60;1.40;;;;;;;;;;4970508;28;20391;-68
2023/03/12 05:05:46;;;;;;;5.00;1.00;;;;;;;;;;4968975;28;20027;-67
2023/03/12 05:08:11;;;;;;;5.50;1.20;;;;;;;;;;4969945;28;20060;-66
2023/03/12 05:10:36;;;;;;;4.60;1.45;;;;;;;;;;4969889;28;20030;-67
2023/03/12 05:13:02;;;;;;;4.78;1.40;;;;;;;;;;4970164;28;20387;-67
2023/03/12 05:15:27;;;;;;;5.68;1.42;;;;;;;;;;4969782;28;20042;-67
2023/03/12 05:17:52;;;;;;;5.50;1.90;;;;;;;;;;4971470;28;20023;-68
2023/03/12 05:20:18;;;;;;;4.95;1.48;;;;;;;;;;4969954;28;20030;-69
2023/03/12 05:22:43;;;;;;;3.40;0.90;;;;;;;;;;4967024;28;20042;-68
2023/03/12 05:25:08;;;;;;;3.58;1.02;;;;;;;;;;4965838;28;20109;-68
2023/03/12 05:27:34;;;;;;;5.70;1.48;;;;;;;;;;4970999;28;20029;-70
2023/03/12 05:29:59;;;;;;;4.88;1.08;;;;;;;;;;4970760;28;20027;-69
2023/03/12 05:32:24;;;;;;;4.55;1.30;;;;;;;;;;4971306;28;20110;-68
2023/03/12 05:34:49;;;;;;;5.40;1.47;;;;;;;;;;4969473;28;20039;-68
2023/03/12 05:37:14;;;;;;;4.50;1.23;;;;;;;;;;4969983;28;20019;-68
2023/03/12 05:39:45;;;;;;;3.27;1.10;;;;;;;;;;4968278;28;20501;-67
2023/03/12 05:42:10;;;;;;;4.80;1.40;;;;;;;;;;4969461;28;20499;-68
2023/03/12 05:44:36;;;;;;;5.95;1.65;;;;;;;;;;4970225;28;20105;-66
2023/03/12 05:47:01;;;;;;;5.87;1.40;;;;;;;;;;4969805;28;20323;-67
2023/03/12 05:49:26;;;;;;;3.95;1.20;;;;;;;;;;4969172;28;20049;-67
2023/03/12 05:51:51;;;;;;;5.65;1.30;;;;;;;;;;4966897;28;20402;-67
2023/03/12 05:54:16;;;;;;;5.07;1.45;;;;;;;;;;4973391;28;20042;-67
2023/03/12 05:56:42;;;;;;;4.60;1.40;;;;;;;;;;4970631;28;20043;-67
2023/03/12 05:59:09;;;;;;;5.07;1.30;;;;;;;;;;4978275;28;20022;-67
2023/03/12 06:01:34;;;;;;;4.43;1.75;;;;;;;;;;4969723;28;20520;-68
2023/03/12 06:03:59;;;;;;;6.57;1.40;;;;;;;;;;4969357;28;20023;-67
2023/03/12 06:06:24;;;;;;;5.75;1.33;;;;;;;;;;4969037;28;20023;-67
2023/03/12 06:08:50;;;;;;;7.03;1.47;;;;;;;;;;4970108;28;20037;-67
2023/03/12 06:11:15;;;;;;;4.68;1.30;;;;;;;;;;4970596;28;20026;-69
2023/03/12 06:13:40;;;;;;;6.10;1.50;;;;;;;;;;4969654;28;20513;-67
2023/03/12 06:16:07;;;;;;;4.88;1.00;;;;;;;;;;4967200;28;20517;-69
2023/03/12 06:18:33;;;;;;;4.35;1.40;;;;;;;;;;4969024;28;20508;-65
2023/03/12 06:21:08;;;;;;;7.45;1.42;;;;;;;;;;4968895;28;20031;-69
2023/03/12 06:23:33;;;;;;;7.40;1.20;;;;;;;;;;4968196;28;20038;-67
2023/03/12 06:25:58;;;;;;;5.93;1.80;;;;;;;;;;4971227;28;20030;-66
2023/03/12 06:28:24;;;;;;;7.68;1.98;;;;;;;;;;4970390;28;20026;-67
2023/03/12 06:30:51;;;;;;;4.37;1.17;;;;;;;;;;4972704;28;20030;-67
2023/03/12 06:33:16;;;;;;;4.00;1.30;;;;;;;;;;4973235;28;20035;-69
2023/03/12 06:35:41;;;;;;;7.20;1.85;;;;;;;;;;4974782;28;20110;-68
2023/03/12 06:38:06;;;;;;;5.63;2.00;;;;;;;;;;4973374;28;20058;-67
2023/03/12 06:40:32;;;;;;;7.85;1.80;;;;;;;;;;4971691;28;20410;-68
2023/03/12 06:42:57;;;;;;;9.75;3.05;;;;;;;;;;4971896;28;20489;-67
2023/03/12 06:45:22;;;;;;;12.27;4.82;;;;;;;;;;4973158;28;20130;-69
2023/03/12 06:47:47;;;;;;;6.57;1.70;;;;;;;;;;4974506;28;20042;-66
2023/03/12 06:50:12;;;;;;;6.43;2.10;;;;;;;;;;4974259;28;20023;-69
2023/03/12 06:52:39;;;;;;;5.63;1.90;;;;;;;;;;4972768;28;20520;-68
2023/03/12 06:55:04;;;;;;;5.13;1.63;;;;;;;;;;4968904;28;20081;-67
2023/03/12 06:57:29;;;;;;;5.45;1.50;;;;;;;;;;4971665;28;20502;-68
2023/03/12 06:59:55;;;;;;;5.60;1.40;;;;;;;;;;4968150;28;20033;-67
2023/03/12 07:02:20;;;;;;;5.97;1.70;;;;;;;;;;4970678;28;20513;-66
2023/03/12 07:04:45;;;;;;;5.03;1.47;;;;;;;;;;4971387;28;20022;-67
2023/03/12 07:07:10;;;;;;;5.10;1.80;;;;;;;;;;4964727;28;20106;-67
2023/03/12 07:09:36;;;;;;;5.20;1.47;;;;;;;;;;4967325;28;20062;-68
2023/03/12 07:12:03;;;;;;;5.35;1.50;;;;;;;;;;4973138;28;20034;-69
2023/03/12 07:14:28;;;;;;;5.03;2.00;;;;;;;;;;4973015;28;20444;-67
2023/03/12 07:16:53;;;;;;;5.88;1.60;;;;;;;;;;4970543;28;20110;-66
2023/03/12 07:19:18;;;;;;;6.17;1.90;;;;;;;;;;4968589;28;20023;-68
2023/03/12 07:21:43;;;;;;;6.43;1.90;;;;;;;;;;4971063;28;20372;-68
2023/03/12 07:24:08;;;;;;;6.18;1.75;;;;;;;;;;4972385;28;20081;-68
2023/03/12 07:26:34;;;;;;;4.27;1.63;;;;;;;;;;4970366;28;20062;-65
2023/03/12 07:28:59;;;;;;;6.95;1.80;;;;;;;;;;4962719;28;20027;-66
2023/03/12 07:31:24;;;;;;;6.97;2.85;;;;;;;;;;4965541;28;20382;-65
2023/03/12 07:33:49;;;;;;;8.07;3.45;;;;;;;;;;4969892;28;20023;-67
2023/03/12 07:36:15;;;;;;;7.65;3.00;;;;;;;;;;4966523;28;20081;-66
2023/03/12 07:38:40;;;;;;;8.80;3.40;;;;;;;;;;4965167;28;20030;-66
2023/03/12 07:41:05;;;;;;;12.83;3.60;;;;;;;;;;4968806;28;20027;-65
2023/03/12 07:43:30;;;;;;;8.45;3.35;;;;;;;;;;4970579;28;20481;-66
2023/03/12 07:45:55;;;;;;;7.30;3.00;;;;;;;;;;4968879;28;20033;-66
2023/03/12 07:48:21;;;;;;;8.63;3.00;;;;;;;;;;4971121;28;20449;-66
2023/03/12 07:50:46;;;;;;;11.20;3.60;;;;;;;;;;4965736;28;20029;-66
2023/03/12 07:53:11;;;;;;;9.30;3.00;;;;;;;;;;4966511;28;20054;-67
2023/03/12 07:55:36;;;;;;;6.10;2.75;;;;;;;;;;4966118;28;20045;-65
2023/03/12 07:58:01;;;;;;;8.43;2.87;;;;;;;;;;4967177;28;20023;-67
2023/03/12 08:00:27;;;;;;;5.63;2.40;;;;;;;;;;4964892;28;20533;-67
2023/03/12 08:02:52;;;;;;;7.90;2.50;;;;;;;;;;4968651;28;20097;-66
2023/03/12 08:05:18;;;;;;;6.38;2.15;;;;;;;;;;4967497;28;20067;-65
2023/03/12 08:07:43;;;;;;;10.68;2.55;;;;;;;;;;4968108;28;20030;-67
2023/03/12 08:10:09;;;;;;;6.60;2.10;;;;;;;;;;4969364;28;20069;-67
2023/03/12 08:12:36;;;;;;;6.13;2.10;;;;;;;;;;4965585;28;20085;-66
2023/03/12 08:15:01;;;;;;;6.35;2.08;;;;;;;;;;4963506;28;20209;-67
2023/03/12 08:17:26;;;;;;;5.07;1.90;;;;;;;;;;4965938;28;20101;-68
2023/03/12 08:19:51;;;;;;;4.28;1.75;;;;;;;;;;4969115;28;20114;-65
2023/03/12 08:22:16;;;;;;;6.80;1.87;;;;;;;;;;4965410;28;20073;-66
2023/03/12 08:24:42;;;;;;;7.15;2.13;;;;;;;;;;4968650;28;20106;-65
2023/03/12 08:27:07;;;;;;;11.23;1.93;;;;;;;;;;4969007;28;20031;-67
2023/03/12 08:29:32;;;;;;;7.13;2.00;;;;;;;;;;4966891;28;20693;-65
2023/03/12 08:31:57;;;;;;;5.50;2.17;;;;;;;;;;4966998;28;20031;-64
2023/03/12 08:34:23;;;;;;;6.57;2.03;;;;;;;;;;4966741;28;20030;-66
2023/03/12 08:36:48;;;;;;;6.00;1.90;;;;;;;;;;4961783;28;20085;-67
2023/03/12 08:39:13;;;;;;;7.30;1.92;;;;;;;;;;4970369;28;20106;-65
2023/03/12 08:41:38;;;;;;;7.17;2.03;;;;;;;;;;4967146;28;20390;-67
2023/03/12 08:44:03;;;;;;;7.38;2.13;;;;;;;;;;4969508;28;20022;-66
2023/03/12 08:46:28;;;;;;;7.95;2.03;;;;;;;;;;4961629;28;20027;-66
2023/03/12 08:48:53;;;;;;;5.83;1.90;;;;;;;;;;4968242;28;20041;-66
2023/03/12 08:51:19;;;;;;;4.40;1.50;;;;;;;;;;4966135;28;20066;-67
2023/03/12 08:53:44;;;;;;;6.30;1.93;;;;;;;;;;4966786;28;20122;-65
2023/03/12 08:56:09;;;;;;;6.83;1.80;;;;;;;;;;4966460;28;20053;-67
2023/03/12 08:58:34;;;;;;;5.32;1.90;;;;;;;;;;4968071;28;20114;-67
2023/03/12 09:00:59;;;;;;;7.68;1.90;;;;;;;;;;4964774;28;20062;-67
2023/03/12 09:03:25;;;;;;;6.07;1.90;;;;;;;;;;4967943;28;20391;-66
2023/03/12 09:06:00;;;;;;;5.28;1.83;;;;;;;;;;4963022;28;20031;-65
2023/03/12 09:08:25;;;;;;;4.63;1.30;;;;;;;;;;4965506;28;20125;-65
2023/03/12 09:10:50;;;;;;;7.72;1.80;;;;;;;;;;4963770;28;20189;-69
2023/03/12 09:13:16;;;;;;;5.63;1.58;;;;;;;;;;4966513;28;20035;-67
2023/03/12 09:15:41;;;;;;;4.17;1.27;;;;;;;;;;4962602;28;20027;-67
2023/03/12 09:18:06;;;;;;;5.75;1.40;;;;;;;;;;4967865;28;20638;-67
2023/03/12 09:20:31;;;;;;;5.47;1.40;;;;;;;;;;4969073;28;20031;-66
2023/03/12 09:22:56;;;;;;;4.77;1.50;;;;;;;;;;4969820;28;20023;-66
2023/03/12 09:25:22;;;;;;;4.30;1.10;;;;;;;;;;4970742;28;20522;-67
2023/03/12 09:27:47;;;;;;;3.75;1.35;;;;;;;;;;4971786;28;20027;-68
2023/03/12 09:30:18;;;;;;;6.07;1.90;;;;;;;;;;4967418;28;20030;-65
2023/03/12 09:32:44;;;;;;;4.22;1.00;;;;;;;;;;4977336;28;20102;-66
2023/03/12 09:35:10;;;;;;;4.25;1.05;;;;;;;;;;4970176;28;20038;-66
2023/03/12 09:37:35;;;;;;;3.13;0.82;;;;;;;;;;4971627;28;20038;-70
2023/03/12 09:40:00;;;;;;;3.67;0.90;;;;;;;;;;4972335;28;20506;-69
2023/03/12 09:42:39;;;;;;;4.30;0.80;;;;;;;;;;4973656;28;20023;-67
2023/03/12 09:45:05;;;;;;;4.35;0.98;;;;;;;;;;4975432;28;20029;-66
2023/03/12 09:47:42;;;;;;;4.35;1.00;;;;;;;;;;4968893;28;20022;-69
2023/03/12 09:50:19;;;;;;;4.47;1.02;;;;;;;;;;4963125;28;20398;-66
2023/03/12 09:52:49;;;;;;;4.85;0.77;;;;;;;;;;4968994;28;20445;-67
2023/03/12 09:55:16;;;;;;;4.80;0.88;;;;;;;;;;4966993;28;20038;-67
2023/03/12 09:57:42;;;;;;;4.68;0.90;;;;;;;;;;4967600;28;20571;-66
2023/03/12 10:00:11;;;;;;;3.92;0.80;;;;;;;;;;4973659;28;20054;-66
2023/03/12 10:02:47;;;;;;;5.22;0.90;;;;;;;;;;4986829;28;20058;-67
2023/03/12 10:05:25;;;;;;;3.90;0.90;;;;;;;;;;4975576;28;20082;-67
2023/03/12 10:07:58;;;;;;;3.97;0.95;;;;;;;;;;4971298;28;20478;-68
2023/03/12 10:10:23;;;;;;;4.60;0.73;;;;;;;;;;4972933;28;20031;-66
2023/03/12 10:13:07;;;;;;;3.70;0.70;;;;;;;;;;4978900;28;20146;-66
2023/03/12 10:15:41;;;;;;;2.10;0.60;;;;;;;;;;4974329;28;20047;-65
2023/03/12 10:18:07;;;;;;;2.42;0.63;;;;;;;;;;4975776;28;20058;-66
2023/03/12 10:20:32;;;;;;;3.85;0.70;;;;;;;;;;4977563;28;20038;-67
2023/03/12 10:23:06;;;;;;;3.15;0.77;;;;;;;;;;4978389;28;20034;-67
2023/03/12 10:25:34;;;;;;;3.65;0.80;;;;;;;;;;4976860;28;20031;-66
2023/03/12 10:28:19;;;;;;;3.20;0.80;;;;;;;;;;4971656;28;20031;-68
2023/03/12 10:30:48;;;;;;;2.42;0.60;;;;;;;;;;4960516;28;20486;-66
2023/03/12 10:33:16;;;;;;;2.78;0.60;;;;;;;;;;4967836;28;20026;-68
2023/03/12 10:35:41;;;;;;;2.75;0.80;;;;;;;;;;4966067;28;20034;-68
2023/03/12 10:38:11;;;;;;;3.40;0.90;;;;;;;;;;4968552;28;20023;-68
2023/03/12 10:40:37;;;;;;;3.97;0.90;;;;;;;;;;4967210;28;20090;-67
2023/03/12 10:43:03;;;;;;;3.67;0.90;;;;;;;;;;4966187;28;20022;-68
2023/03/12 10:45:40;;;;;;;3.33;0.70;;;;;;;;;;4966857;28;20026;-66
2023/03/12 10:48:07;;;;;;;2.85;0.60;;;;;;;;;;4967099;28;20510;-66
2023/03/12 10:50:34;;;;;;;4.43;0.82;;;;;;;;;;4959959;28;20026;-69
2023/03/12 10:53:17;;;;;;;2.78;0.63;;;;;;;;;;4967956;28;20022;-69
2023/03/12 10:55:42;;;;;;;2.45;0.50;;;;;;;;;;4961396;28;20126;-68
2023/03/12 10:58:20;;;;;;;3.13;0.73;;;;;;;;;;4965704;28;20122;-67
2023/03/12 11:00:55;;;;;;;3.45;0.70;;;;;;;;;;4964002;28;20182;-69
2023/03/12 11:03:20;;;;;;;3.95;0.95;;;;;;;;;;4967317;28;20027;-67
2023/03/12 11:05:50;;;;;;;4.50;0.60;;;;;;;;;;4966358;28;20034;-66
2023/03/12 11:08:26;;;;;;;3.53;0.55;;;;;;;;;;4967760;28;20034;-68
2023/03/12 11:10:52;;;;;;;2.50;0.63;;;;;;;;;;4967086;28;20117;-66
2023/03/12 11:13:22;;;;;;;2.42;0.70;;;;;;;;;;4969108;28;20061;-67
2023/03/12 11:15:47;;;;;;;4.55;0.80;;;;;;;;;;4969637;28;20042;-67
2023/03/12 11:18:21;;;;;;;2.13;0.50;;;;;;;;;;4970793;28;20030;-65
2023/03/12 11:20:47;;;;;;;5.90;0.80;;;;;;;;;;4972400;28;20115;-68
2023/03/12 11:23:14;;;;;;;6.05;0.80;;;;;;;;;;4965014;28;20027;-67
2023/03/12 11:25:39;;;;;;;3.42;0.75;;;;;;;;;;4969257;28;20027;-67
2023/03/12 11:28:05;;;;;;;2.47;0.70;;;;;;;;;;4967585;28;20033;-68
2023/03/12 11:30:34;;;;;;;4.82;0.90;;;;;;;;;;4987140;28;20105;-68
2023/03/12 11:33:00;;;;;;;2.92;0.68;;;;;;;;;;4970624;28;20031;-69
2023/03/12 11:35:32;;;;;;;4.03;0.73;;;;;;;;;;4968374;28;20039;-68
2023/03/12 11:38:04;;;;;;;3.50;0.80;;;;;;;;;;4970381;28;20033;-65
2023/03/12 11:40:47;;;;;;;4.70;0.90;;;;;;;;;;4971110;28;20422;-69
2023/03/12 11:43:12;;;;;;;4.28;1.02;;;;;;;;;;4966677;28;20031;-69
2023/03/12 11:46:01;;;;;;;5.80;1.20;;;;;;;;;;4971050;28;20037;-69
2023/03/12 11:48:45;;;;;;;4.82;1.02;;;;;;;;;;4948487;28;20498;-69
2023/03/12 11:51:28;;;;;;;4.68;0.95;;;;;;;;;;4968314;28;20027;-67
2023/03/12 11:53:56;;;;;;;5.15;0.98;;;;;;;;;;4964939;28;20015;-68
2023/03/12 11:56:28;;;;;;;5.82;1.10;;;;;;;;;;4968931;28;20057;-68
2023/03/12 11:59:14;;;;;;;4.25;0.98;;;;;;;;;;4969192;28;20026;-66
2023/03/12 12:01:42;;;;;;;3.45;1.02;;;;;;;;;;4944570;28;20374;-67
2023/03/12 12:04:25;;;;;;;3.83;0.98;;;;;;;;;;4970163;28;20033;-66
2023/03/12 12:06:51;;;;;;;5.30;1.00;;;;;;;;;;4967974;28;20026;-67
2023/03/12 12:09:19;;;;;;;4.22;1.02;;;;;;;;;;4967874;28;20035;-67
2023/03/12 12:11:59;;;;;;;5.35;0.98;;;;;;;;;;4970020;28;20174;-68
2023/03/12 12:14:41;;;;;;;3.55;0.93;;;;;;;;;;4970191;28;20019;-67
2023/03/12 12:17:16;;;;;;;4.07;1.00;;;;;;;;;;4969337;28;20042;-67
2023/03/12 12:20:08;;;;;;;3.17;0.85;;;;;;;;;;4963739;28;20430;-66
2023/03/12 12:22:41;;;;;;;3.42;0.80;;;;;;;;;;4960689;28;20093;-69
2023/03/12 12:25:19;;;;;;;4.60;1.10;;;;;;;;;;4965738;28;20065;-66
2023/03/12 12:27:58;;;;;;;4.28;1.10;;;;;;;;;;4965291;28;20450;-68
2023/03/12 12:30:37;;;;;;;5.05;1.33;;;;;;;;;;4976583;28;20027;-68
2023/03/12 12:33:02;;;;;;;5.32;1.20;;;;;;;;;;4967816;28;20019;-66
2023/03/12 12:35:32;;;;;;;3.97;1.40;;;;;;;;;;4969886;28;20732;-66
2023/03/12 12:38:01;;;;;;;4.65;1.23;;;;;;;;;;4969245;28;20073;-74
2023/03/12 12:40:30;;;;;;;5.57;1.30;;;;;;;;;;4967893;28;20133;-72
2023/03/12 12:43:05;;;;;;;4.82;1.30;;;;;;;;;;4966454;28;20379;-75
2023/03/12 12:45:30;;;;;;;3.78;1.45;;;;;;;;;;4968245;28;20061;-66
2023/03/12 12:47:59;;;;;;;4.97;1.20;;;;;;;;;;4969683;28;20030;-67
2023/03/12 12:50:26;;;;;;;9.93;1.52;;;;;;;;;;4969526;28;20441;-66
2023/03/12 12:53:11;;;;;;;3.72;1.50;;;;;;;;;;4963524;28;20089;-66
2023/03/12 12:55:41;;;;;;;5.57;1.23;;;;;;;;;;4968490;28;20034;-67
2023/03/12 12:58:27;;;;;;;5.45;1.30;;;;;;;;;;4964141;28;20439;-65
2023/03/12 13:00:54;;;;;;;5.70;1.20;;;;;;;;;;4945651;28;20393;-66
2023/03/12 13:03:20;;;;;;;5.47;1.30;;;;;;;;;;4976874;28;20023;-67
2023/03/12 13:05:51;;;;;;;5.50;1.50;;;;;;;;;;4980992;28;20062;-65
2023/03/12 13:08:36;;;;;;;5.35;1.55;;;;;;;;;;4976623;28;20297;-67
2023/03/12 13:11:22;;;;;;;5.75;1.40;;;;;;;;;;4974518;28;20026;-65
2023/03/12 13:13:48;;;;;;;6.65;1.55;;;;;;;;;;4979902;28;20121;-68
2023/03/12 13:16:13;;;;;;;;;;;;;;;;;;4968371;28;20035;-68
2023/03/12 13:18:39;;;;;;;6.05;1.20;;;;;;;;;;4964658;28;19921;-67
2023/03/12 13:21:23;;;;;;;5.72;1.15;;;;;;;;;;4965975;28;20402;-67
2023/03/12 13:24:05;;;;;;;3.75;1.10;;;;;;;;;;4962099;28;20478;-67
2023/03/12 13:26:32;;;;;;;6.95;1.35;;;;;;;;;;4970072;28;20414;-67
2023/03/12 13:28:59;;;;;;;5.00;1.13;;;;;;;;;;4968239;28;20085;-67
2023/03/12 13:31:27;;;;;;;3.70;1.20;;;;;;;;;;4966962;28;20023;-66
2023/03/12 13:33:55;;;;;;;5.53;1.20;;;;;;;;;;4969418;28;20023;-65
2023/03/12 13:36:22;;;;;;;5.05;1.30;;;;;;;;;;4970374;28;20038;-67
2023/03/12 13:38:58;;;;;;;4.78;1.25;;;;;;;;;;4969533;28;20094;-69
2023/03/12 13:41:29;;;;;;;7.28;1.50;;;;;;;;;;4964967;28;20025;-66
2023/03/12 13:43:55;;;;;;;4.00;1.08;;;;;;;;;;4972618;28;20077;-66
2023/03/12 13:46:31;;;;;;;5.97;1.13;;;;;;;;;;4970502;28;20057;-68
2023/03/12 13:48:58;;;;;;;5.15;1.42;;;;;;;;;;4968486;28;20035;-68
2023/03/12 13:51:24;;;;;;;4.32;1.00;;;;;;;;;;4982786;28;20078;-69
2023/03/12 13:53:52;;;;;;;5.07;1.30;;;;;;;;;;4966176;28;20405;-69
2023/03/12 13:56:18;;;;;;;4.45;1.35;;;;;;;;;;4967382;28;20518;-68
2023/03/12 13:59:03;;;;;;;4.55;0.95;;;;;;;;;;4967642;28;20023;-66
2023/03/12 14:01:30;;;;;;;4.22;1.30;;;;;;;;;;4967315;28;20371;-66
2023/03/12 14:03:57;;;;;;;3.97;1.00;;;;;;;;;;4965934;28;20647;-67
2023/03/12 14:06:23;;;;;;;4.60;1.00;;;;;;;;;;4967159;28;20027;-66
2023/03/12 14:09:01;;;;;;;6.10;1.10;;;;;;;;;;4968526;28;20665;-67
2023/03/12 14:11:42;;;;;;;4.22;0.80;;;;;;;;;;4967397;28;20126;-67
2023/03/12 14:14:14;;;;;;;4.00;1.00;;;;;;;;;;4967498;28;20029;-67
2023/03/12 14:16:42;;;;;;;3.38;0.90;;;;;;;;;;4967961;28;20441;-66
2023/03/12 14:19:12;;;;;;;3.63;0.80;;;;;;;;;;4964468;28;20113;-66
2023/03/12 14:21:38;;;;;;;4.63;1.00;;;;;;;;;;4965510;28;20575;-68
2023/03/12 14:24:05;;;;;;;4.00;1.00;;;;;;;;;;4964648;28;20046;-67
2023/03/12 14:26:32;;;;;;;6.20;1.15;;;;;;;;;;4967906;28;20054;-66
2023/03/12 14:29:05;;;;;;;6.65;1.23;;;;;;;;;;4970659;28;20030;-68
2023/03/12 14:31:30;;;;;;;4.28;1.10;;;;;;;;;;4975259;28;20856;-68
2023/03/12 14:33:59;;;;;;;3.88;0.90;;;;;;;;;;4968494;28;20034;-67
2023/03/12 14:36:47;;;;;;;4.00;0.90;;;;;;;;;;4965362;28;20368;-67
2023/03/12 14:39:25;;;;;;;4.32;1.10;;;;;;;;;;4938376;28;20038;-68
2023/03/12 14:41:54;;;;;;;6.35;1.20;;;;;;;;;;4982356;28;20486;-67
2023/03/12 14:44:24;;;;;;;5.45;1.63;;;;;;;;;;4968050;28;20023;-66
2023/03/12 14:46:56;;;;;;;7.20;1.30;;;;;;;;;;4969833;28;20023;-68